createdAt,value
2023-02-19T00:02:25.468Z,12.70
2023-02-19T00:04:52.140Z,13.90
2023-02-19T00:07:18.859Z,15.23
2023-02-19T00:09:45.553Z,15.63
2023-02-19T00:12:12.332Z,13.75
2023-02-19T00:14:39.429Z,15.45
2023-02-19T00:17:07.441Z,14.93
2023-02-19T00:19:34.053Z,13.43
2023-02-19T00:22:00.849Z,16.90
2023-02-19T00:24:27.847Z,18.77
2023-02-19T00:26:54.673Z,17.92
2023-02-19T00:29:21.936Z,15.50
2023-02-19T00:31:49.634Z,15.70
2023-02-19T00:34:17.798Z,16.02
2023-02-19T00:36:44.723Z,16.90
2023-02-19T00:39:14.565Z,17.38
2023-02-19T00:41:41.766Z,16.08
2023-02-19T00:44:10.718Z,20.50
2023-02-19T00:46:40.039Z,19.15
2023-02-19T00:49:08.097Z,20.25
2023-02-19T00:51:38.043Z,17.33
2023-02-19T00:54:05.931Z,19.25
2023-02-19T00:56:33.095Z,19.65
2023-02-19T00:59:00.300Z,17.58
2023-02-19T01:01:26.976Z,19.02
2023-02-19T01:03:54.017Z,24.50
2023-02-19T01:06:20.851Z,20.75
2023-02-19T01:08:49.518Z,20.60
2023-02-19T01:11:17.465Z,23.63
2023-02-19T01:13:44.482Z,24.52
2023-02-19T01:16:13.791Z,25.75
2023-02-19T01:18:40.952Z,25.50
2023-02-19T01:21:10.187Z,24.40
2023-02-19T01:23:37.318Z,24.70
2023-02-19T01:26:07.072Z,24.77
2023-02-19T01:28:34.119Z,28.15
2023-02-19T01:31:02.012Z,27.63
2023-02-19T01:33:28.830Z,29.35
2023-02-19T01:35:55.824Z,24.45
2023-02-19T01:38:22.775Z,27.23
2023-02-19T01:40:55.879Z,25.58
2023-02-19T01:43:24.305Z,28.10
2023-02-19T01:45:51.173Z,28.13
2023-02-19T01:48:21.243Z,26.63
2023-02-19T01:50:50.680Z,27.08
2023-02-19T01:53:22.090Z,25.35
2023-02-19T01:55:53.000Z,30.80
2023-02-19T01:58:19.957Z,27.77
2023-02-19T02:00:48.232Z,29.55
2023-02-19T02:03:15.101Z,28.90
2023-02-19T02:06:02.507Z,33.22
2023-02-19T02:08:33.498Z,28.38
2023-02-19T02:11:02.312Z,28.48
2023-02-19T02:13:31.498Z,28.17
2023-02-19T02:16:08.969Z,27.40
2023-02-19T02:18:44.905Z,36.78
2023-02-19T02:21:53.523Z,31.42
2023-02-19T02:24:57.154Z,25.73
2023-02-19T02:27:49.367Z,32.42
2023-02-19T02:30:44.506Z,27.98
2023-02-19T02:33:23.275Z,29.58
2023-02-19T02:35:57.495Z,30.10
2023-02-19T02:38:28.043Z,30.55
2023-02-19T02:40:58.589Z,26.50
2023-02-19T02:43:25.650Z,25.17
2023-02-19T02:45:53.871Z,28.60
2023-02-19T02:48:35.632Z,31.85
2023-02-19T02:51:14.107Z,29.70
2023-02-19T02:53:51.404Z,26.75
2023-02-19T02:56:20.961Z,31.25
2023-02-19T02:58:51.789Z,26.52
2023-02-19T03:01:29.218Z,28.25
2023-02-19T03:04:02.262Z,26.65
2023-02-19T03:06:35.157Z,26.25
2023-02-19T03:09:09.177Z,29.27
2023-02-19T03:11:40.074Z,26.20
2023-02-19T03:14:13.317Z,28.48
2023-02-19T03:16:44.667Z,24.00
2023-02-19T03:19:15.846Z,23.50
2023-02-19T03:21:46.129Z,29.30
2023-02-19T03:24:14.709Z,28.45
2023-02-19T03:26:44.614Z,23.30
2023-02-19T03:29:14.380Z,24.42
2023-02-19T03:31:46.809Z,28.13
2023-02-19T03:34:17.138Z,24.40
2023-02-19T03:36:49.212Z,24.27
2023-02-19T03:41:56.292Z,23.15
2023-02-19T03:44:32.688Z,24.10
2023-02-19T03:47:08.017Z,21.75
2023-02-19T03:49:48.942Z,26.95
2023-02-19T03:52:24.959Z,22.80
2023-02-19T03:54:57.752Z,23.05
2023-02-19T03:57:33.919Z,21.42
2023-02-19T04:00:10.689Z,22.50
2023-02-19T04:02:49.910Z,24.70
2023-02-19T04:05:21.258Z,19.05
2023-02-19T04:07:56.298Z,25.50
2023-02-19T04:10:30.973Z,21.98
2023-02-19T04:13:04.195Z,22.02
2023-02-19T04:15:34.312Z,22.70
2023-02-19T04:18:07.616Z,16.75
2023-02-19T04:20:41.306Z,19.15
2023-02-19T04:23:10.422Z,13.35
2023-02-19T04:25:39.829Z,22.10
2023-02-19T04:28:08.548Z,19.60
2023-02-19T04:30:35.521Z,18.05
2023-02-19T04:33:04.556Z,17.58
2023-02-19T04:35:31.587Z,16.92
2023-02-19T04:37:58.454Z,21.85
2023-02-19T04:40:25.559Z,18.80
2023-02-19T04:42:53.413Z,19.35
2023-02-19T04:45:25.174Z,19.02
2023-02-19T04:47:54.268Z,18.30
2023-02-19T04:50:25.205Z,17.63
2023-02-19T04:52:53.519Z,18.33
2023-02-19T04:55:20.394Z,15.88
2023-02-19T04:57:47.306Z,13.68
2023-02-19T05:00:14.524Z,13.25
2023-02-19T05:02:44.331Z,17.08
2023-02-19T05:05:11.366Z,13.93
2023-02-19T05:07:46.959Z,15.75
2023-02-19T05:10:13.890Z,15.23
2023-02-19T05:12:40.897Z,16.85
2023-02-19T05:15:08.288Z,15.77
2023-02-19T05:17:35.504Z,21.40
2023-02-19T05:20:03.673Z,12.93
2023-02-19T05:22:30.893Z,16.58
2023-02-19T05:24:59.217Z,19.00
2023-02-19T05:27:26.086Z,22.23
2023-02-19T05:29:54.787Z,17.63
2023-02-19T05:32:24.583Z,22.10
2023-02-19T05:34:52.398Z,14.00
2023-02-19T05:37:20.150Z,15.98
2023-02-19T05:39:48.711Z,16.88
2023-02-19T05:42:17.533Z,18.73
2023-02-19T05:44:44.563Z,19.30
2023-02-19T05:47:11.883Z,16.42
2023-02-19T05:49:38.911Z,20.52
2023-02-19T05:52:05.984Z,18.80
2023-02-19T05:54:33.889Z,14.05
2023-02-19T05:57:01.157Z,20.65
2023-02-19T05:59:29.551Z,16.92
2023-02-19T06:01:56.483Z,19.60
2023-02-19T06:04:23.549Z,20.95
2023-02-19T06:06:51.537Z,16.27
2023-02-19T06:09:18.552Z,20.45
2023-02-19T06:11:47.249Z,16.80
2023-02-19T06:14:14.513Z,18.48
2023-02-19T06:16:47.832Z,14.30
2023-02-19T06:19:16.859Z,21.45
2023-02-19T06:21:46.751Z,14.93
2023-02-19T06:24:16.155Z,14.63
2023-02-19T06:26:45.746Z,19.80
2023-02-19T06:29:15.240Z,15.40
2023-02-19T06:31:47.555Z,17.52
2023-02-19T06:34:14.592Z,14.73
2023-02-19T06:36:41.621Z,13.75
2023-02-19T06:39:10.192Z,18.25
2023-02-19T06:41:39.616Z,17.48
2023-02-19T06:44:10.991Z,17.88
2023-02-19T06:46:38.258Z,15.05
2023-02-19T06:49:09.828Z,18.08
2023-02-19T06:51:42.597Z,16.23
2023-02-19T06:54:11.498Z,17.73
2023-02-19T06:56:41.281Z,15.65
2023-02-19T06:59:15.884Z,21.35
2023-02-19T07:01:45.587Z,17.00
2023-02-19T07:04:14.304Z,27.73
2023-02-19T07:06:47.734Z,19.13
2023-02-19T07:09:15.318Z,21.02
2023-02-19T07:11:42.057Z,19.08
2023-02-19T07:14:17.654Z,22.45
2023-02-19T07:16:48.693Z,18.85
2023-02-19T07:19:20.190Z,20.35
2023-02-19T07:21:49.664Z,22.42
2023-02-19T07:24:16.743Z,16.73
2023-02-19T07:26:43.709Z,19.33
2023-02-19T07:29:13.034Z,16.67
2023-02-19T07:31:42.682Z,18.33
2023-02-19T07:34:09.909Z,16.17
2023-02-19T07:36:38.536Z,24.60
2023-02-19T07:39:10.047Z,17.80
2023-02-19T07:41:37.196Z,16.60
2023-02-19T07:44:05.553Z,18.85
2023-02-19T07:46:32.996Z,16.00
2023-02-19T07:49:00.489Z,12.25
2023-02-19T07:51:36.409Z,15.13
2023-02-19T07:54:05.166Z,16.17
2023-02-19T07:56:32.136Z,23.33
2023-02-19T07:59:00.434Z,16.15
2023-02-19T08:01:27.497Z,13.23
2023-02-19T08:04:00.438Z,12.88
2023-02-19T08:06:31.684Z,20.88
2023-02-19T08:09:04.877Z,16.42
2023-02-19T08:11:31.813Z,13.85
2023-02-19T08:13:58.675Z,18.23
2023-02-19T08:16:40.841Z,12.77
2023-02-19T08:19:09.529Z,18.48
2023-02-19T08:21:36.517Z,19.27
2023-02-19T08:24:05.677Z,11.57
2023-02-19T08:26:33.124Z,13.50
2023-02-19T08:28:59.752Z,14.95
2023-02-19T08:31:26.728Z,13.73
2023-02-19T08:33:53.592Z,11.77
2023-02-19T08:36:20.383Z,8.77
2023-02-19T08:38:47.093Z,11.20
2023-02-19T08:41:15.462Z,15.52
2023-02-19T08:43:42.770Z,14.48
2023-02-19T08:46:11.424Z,10.43
2023-02-19T08:48:38.862Z,12.13
2023-02-19T08:51:07.873Z,13.40
2023-02-19T08:53:36.261Z,12.77
2023-02-19T08:56:05.183Z,14.23
2023-02-19T08:58:33.361Z,10.50
2023-02-19T09:01:00.208Z,12.80
2023-02-19T09:03:26.968Z,14.55
2023-02-19T09:05:53.634Z,11.18
2023-02-19T09:08:20.178Z,8.15
2023-02-19T09:10:57.524Z,9.18
2023-02-19T09:13:24.296Z,10.88
2023-02-19T09:15:52.351Z,10.75
2023-02-19T09:18:19.302Z,11.85
2023-02-19T09:20:45.977Z,13.63
2023-02-19T09:23:12.550Z,12.15
2023-02-19T09:25:39.181Z,13.57
2023-02-19T09:28:05.867Z,16.75
2023-02-19T09:30:32.518Z,12.95
2023-02-19T09:33:00.683Z,9.75
2023-02-19T09:35:27.739Z,13.13
2023-02-19T09:37:54.371Z,10.65
2023-02-19T09:40:21.055Z,11.43
2023-02-19T09:42:50.088Z,10.10
2023-02-19T09:45:21.830Z,16.75
2023-02-19T09:47:49.607Z,12.05
2023-02-19T09:50:22.034Z,15.60
2023-02-19T09:55:29.093Z,9.35
2023-02-19T09:57:57.909Z,14.63
2023-02-19T10:00:27.094Z,11.15
2023-02-19T10:03:04.359Z,10.10
2023-02-19T10:05:33.470Z,13.63
2023-02-19T10:08:00.631Z,12.48
2023-02-19T10:10:30.991Z,13.13
2023-02-19T10:13:11.411Z,13.35
2023-02-19T10:15:44.225Z,9.82
2023-02-19T10:18:11.346Z,12.40
2023-02-19T10:20:40.167Z,12.40
2023-02-19T10:23:10.980Z,10.07
2023-02-19T10:25:45.010Z,11.77
2023-02-19T10:28:16.420Z,10.73
2023-02-19T10:30:43.538Z,13.05
2023-02-19T10:33:11.845Z,12.50
2023-02-19T10:35:52.817Z,9.50
2023-02-19T10:38:21.217Z,9.90
2023-02-19T10:40:48.407Z,8.13
2023-02-19T10:43:26.587Z,12.52
2023-02-19T10:45:53.352Z,13.73
2023-02-19T10:48:24.079Z,10.50
2023-02-19T10:50:55.039Z,12.38
2023-02-19T10:53:23.359Z,11.77
2023-02-19T10:56:07.109Z,11.75
2023-02-19T10:58:33.831Z,9.52
2023-02-19T11:01:14.952Z,14.45
2023-02-19T11:03:42.276Z,11.45
2023-02-19T11:06:12.277Z,9.45
2023-02-19T11:08:48.242Z,12.13
2023-02-19T11:11:27.331Z,8.30
2023-02-19T11:13:55.858Z,9.98
2023-02-19T11:16:22.996Z,13.00
2023-02-19T11:18:57.031Z,9.57
2023-02-19T11:21:28.756Z,9.88
2023-02-19T11:23:55.939Z,11.77
2023-02-19T11:26:25.320Z,12.27
2023-02-19T11:28:56.708Z,12.93
2023-02-19T11:31:26.459Z,9.68
2023-02-19T11:33:58.584Z,12.82
2023-02-19T11:36:31.977Z,9.77
2023-02-19T11:39:05.925Z,11.95
2023-02-19T11:41:56.785Z,14.05
2023-02-19T11:44:37.723Z,15.27
2023-02-19T11:47:30.940Z,12.82
2023-02-19T11:50:05.019Z,13.75
2023-02-19T11:52:38.648Z,14.13
2023-02-19T11:55:16.455Z,15.73
2023-02-19T11:57:45.484Z,13.07
2023-02-19T12:00:24.134Z,12.38
2023-02-19T12:03:21.939Z,12.02
2023-02-19T12:06:08.025Z,10.25
2023-02-19T12:08:48.435Z,9.02
2023-02-19T12:11:33.919Z,11.43
2023-02-19T12:14:26.113Z,9.90
2023-02-19T12:16:59.880Z,9.27
2023-02-19T12:19:56.501Z,7.70
2023-02-19T12:22:29.430Z,5.65
2023-02-19T12:25:28.091Z,7.85
2023-02-19T12:28:19.398Z,8.43
2023-02-19T12:31:17.195Z,5.90
2023-02-19T12:34:02.824Z,7.90
2023-02-19T12:36:40.585Z,6.25
2023-02-19T12:39:16.540Z,4.18
2023-02-19T12:41:53.602Z,6.45
2023-02-19T12:44:26.055Z,4.43
2023-02-19T12:49:27.434Z,5.65
2023-02-19T12:51:57.525Z,4.50
2023-02-19T12:54:27.852Z,5.72
2023-02-19T12:57:01.052Z,6.40
2023-02-19T12:59:33.082Z,5.80
2023-02-19T13:02:06.008Z,7.53
2023-02-19T13:04:41.358Z,5.10
2023-02-19T13:07:11.621Z,3.85
2023-02-19T13:09:43.824Z,4.28
2023-02-19T13:12:17.732Z,5.00
2023-02-19T13:14:48.006Z,2.85
2023-02-19T13:17:24.253Z,4.05
2023-02-19T13:19:57.179Z,6.65
2023-02-19T13:22:31.963Z,4.55
2023-02-19T13:25:00.042Z,6.30
2023-02-19T13:30:30.014Z,7.75
2023-02-19T13:35:55.356Z,4.63
2023-02-19T13:38:22.436Z,4.97
2023-02-19T13:40:54.510Z,7.13
2023-02-19T13:43:25.534Z,5.32
2023-02-19T13:45:56.751Z,7.13
2023-02-19T13:48:29.251Z,6.57
2023-02-19T13:53:58.217Z,3.10
2023-02-19T13:56:42.688Z,4.90
2023-02-19T13:59:32.975Z,3.78
2023-02-19T14:02:29.367Z,5.95
2023-02-19T14:04:58.467Z,4.38
2023-02-19T14:07:50.578Z,2.92
2023-02-19T14:10:57.118Z,4.03
2023-02-19T14:14:05.622Z,5.38
2023-02-19T14:16:51.334Z,4.25
2023-02-19T14:19:46.726Z,5.50
2023-02-19T14:22:48.829Z,4.35
2023-02-19T14:25:38.321Z,4.80
2023-02-19T14:28:14.040Z,4.90
2023-02-19T14:30:46.544Z,4.32
2023-02-19T14:33:16.696Z,6.60
2023-02-19T14:35:46.076Z,6.05
2023-02-19T14:38:18.514Z,2.72
2023-02-19T14:43:15.841Z,2.25
2023-02-19T14:45:47.212Z,2.58
2023-02-19T14:48:21.348Z,3.67
2023-02-19T14:50:51.163Z,2.63
2023-02-19T14:53:20.613Z,3.50
2023-02-19T14:55:49.186Z,5.97
2023-02-19T14:58:20.859Z,2.50
2023-02-19T15:00:47.529Z,2.88
2023-02-19T15:03:28.024Z,3.72
2023-02-19T15:05:58.001Z,3.60
2023-02-19T15:08:30.609Z,3.30
2023-02-19T15:10:57.345Z,1.17
2023-02-19T15:13:27.845Z,1.45
2023-02-19T15:15:55.347Z,1.35
2023-02-19T15:18:25.667Z,1.55
2023-02-19T15:21:00.765Z,2.78
2023-02-19T15:23:30.152Z,2.58
2023-02-19T15:25:57.934Z,1.88
2023-02-19T15:28:30.744Z,1.13
2023-02-19T15:31:12.770Z,1.58
2023-02-19T15:33:49.651Z,1.65
2023-02-19T15:36:22.233Z,2.30
2023-02-19T15:38:55.905Z,2.50
2023-02-19T15:41:25.864Z,2.50
2023-02-19T15:43:58.400Z,6.35
2023-02-19T15:49:00.828Z,2.72
2023-02-19T15:51:34.109Z,1.25
2023-02-19T15:54:07.786Z,2.92
2023-02-19T15:56:38.285Z,2.83
2023-02-19T15:59:11.678Z,1.02
2023-02-19T16:01:39.773Z,1.10
2023-02-19T16:04:12.694Z,1.55
2023-02-19T16:06:55.615Z,2.95
2023-02-19T16:09:24.157Z,2.55
2023-02-19T16:11:52.231Z,2.40
2023-02-19T16:14:24.632Z,1.75
2023-02-19T16:16:54.726Z,1.98
2023-02-19T16:19:27.040Z,3.20
2023-02-19T16:21:55.543Z,3.05
2023-02-19T16:24:28.438Z,3.35
2023-02-19T16:26:56.803Z,2.25
2023-02-19T16:29:25.473Z,3.05
2023-02-19T16:31:56.611Z,1.63
2023-02-19T16:34:43.918Z,4.03
2023-02-19T16:37:37.126Z,1.80
2023-02-19T16:40:37.141Z,2.03
2023-02-19T16:43:25.684Z,2.67
2023-02-19T16:45:52.569Z,1.27
2023-02-19T16:48:22.416Z,1.60
2023-02-19T16:50:50.425Z,1.10
2023-02-19T16:53:19.531Z,3.00
2023-02-19T16:55:46.190Z,1.77
2023-02-19T16:58:12.808Z,1.88
2023-02-19T17:00:39.773Z,1.00
2023-02-19T17:03:09.313Z,1.92
2023-02-19T17:05:37.531Z,1.23
2023-02-19T17:08:23.296Z,1.63
2023-02-19T17:10:50.355Z,1.33
2023-02-19T17:13:17.250Z,0.88
2023-02-19T17:15:43.983Z,1.33
2023-02-19T17:18:11.145Z,0.50
2023-02-19T17:20:38.851Z,1.65
2023-02-19T17:23:06.782Z,1.10
2023-02-19T17:25:33.365Z,1.42
2023-02-19T17:27:59.996Z,1.88
2023-02-19T17:30:28.608Z,1.55
2023-02-19T17:32:55.447Z,1.80
2023-02-19T17:35:22.616Z,3.30
2023-02-19T17:37:50.543Z,1.63
2023-02-19T17:40:32.098Z,5.65
2023-02-19T17:42:59.847Z,2.03
2023-02-19T17:45:26.520Z,6.28
2023-02-19T17:47:53.202Z,2.67
2023-02-19T17:50:22.232Z,1.58
2023-02-19T17:52:49.016Z,1.10
2023-02-19T17:55:17.439Z,1.60
2023-02-19T17:57:45.772Z,4.18
2023-02-19T18:00:14.820Z,0.63
2023-02-19T18:02:41.450Z,1.38
2023-02-19T18:05:08.318Z,0.65
2023-02-19T18:07:35.446Z,2.20
2023-02-19T18:10:02.143Z,0.73
2023-02-19T18:12:28.770Z,1.00
2023-02-19T18:14:56.833Z,0.82
2023-02-19T18:17:23.568Z,0.65
2023-02-19T18:19:51.183Z,1.45
2023-02-19T18:22:18.285Z,0.70
2023-02-19T18:24:46.106Z,0.40
2023-02-19T18:27:12.749Z,1.50
2023-02-19T18:29:39.529Z,0.60
2023-02-19T18:32:07.723Z,1.45
2023-02-19T18:34:34.376Z,0.85
2023-02-19T18:37:01.150Z,1.00
2023-02-19T18:39:29.473Z,1.85
2023-02-19T18:41:56.390Z,1.00
2023-02-19T18:44:24.473Z,0.50
2023-02-19T18:46:51.248Z,0.75
2023-02-19T18:49:19.402Z,1.02
2023-02-19T18:51:46.884Z,1.33
2023-02-19T18:54:15.936Z,1.85
2023-02-19T18:56:43.680Z,0.80
2023-02-19T18:59:11.000Z,1.08
2023-02-19T19:01:37.628Z,1.50
2023-02-19T19:04:05.131Z,2.13
2023-02-19T19:06:33.220Z,0.68
2023-02-19T19:08:59.866Z,2.25
2023-02-19T19:11:26.484Z,3.15
2023-02-19T19:13:53.187Z,2.08
2023-02-19T19:16:23.463Z,2.13
2023-02-19T19:18:50.210Z,0.68
2023-02-19T19:21:17.511Z,1.52
2023-02-19T19:23:45.560Z,1.20
2023-02-19T19:26:12.586Z,1.88
2023-02-19T19:28:40.695Z,1.67
2023-02-19T19:31:07.362Z,1.23
2023-02-19T19:33:34.270Z,1.48
2023-02-19T19:36:00.900Z,1.45
2023-02-19T19:38:27.496Z,2.50
2023-02-19T19:40:55.494Z,1.88
2023-02-19T19:43:22.133Z,0.82
2023-02-19T19:45:48.804Z,3.15
2023-02-19T19:48:15.387Z,1.95
2023-02-19T19:50:41.934Z,0.82
2023-02-19T19:53:08.616Z,1.70
2023-02-19T19:55:35.584Z,2.17
2023-02-19T19:58:03.631Z,1.00
2023-02-19T20:00:30.234Z,2.33
2023-02-19T20:02:57.009Z,0.93
2023-02-19T20:05:23.653Z,1.48
2023-02-19T20:07:50.284Z,2.00
2023-02-19T20:10:17.688Z,1.60
2023-02-19T20:12:44.447Z,1.17
2023-02-19T20:15:13.453Z,1.38
2023-02-19T20:17:40.047Z,1.58
2023-02-19T20:20:08.010Z,1.02
2023-02-19T20:22:34.647Z,2.08
2023-02-19T20:25:01.361Z,3.95
2023-02-19T20:27:28.034Z,1.08
2023-02-19T20:29:54.548Z,1.38
2023-02-19T20:32:22.912Z,1.55
2023-02-19T20:34:49.570Z,1.42
2023-02-19T20:37:16.348Z,1.42
2023-02-19T20:39:43.072Z,1.13
2023-02-19T20:42:09.674Z,1.42
2023-02-19T20:44:36.261Z,2.65
2023-02-19T20:47:03.213Z,1.38
2023-02-19T20:49:31.421Z,2.20
2023-02-19T20:51:59.525Z,1.60
2023-02-19T20:54:28.164Z,6.13
2023-02-19T20:56:56.805Z,3.17
2023-02-19T20:59:25.464Z,3.95
2023-02-19T21:01:52.170Z,2.17
2023-02-19T21:04:19.095Z,2.30
2023-02-19T21:06:47.016Z,3.15
2023-02-19T21:09:13.769Z,3.58
2023-02-19T21:11:40.390Z,4.38
2023-02-19T21:14:07.018Z,4.15
2023-02-19T21:16:34.070Z,4.18
2023-02-19T21:19:00.980Z,3.83
2023-02-19T21:21:28.219Z,4.50
2023-02-19T21:23:58.100Z,5.32
2023-02-19T21:26:32.092Z,4.97
2023-02-19T21:28:58.682Z,6.15
2023-02-19T21:31:34.701Z,8.38
2023-02-19T21:34:03.603Z,3.75
2023-02-19T21:36:30.220Z,3.10
2023-02-19T21:38:58.329Z,5.22
2023-02-19T21:41:25.306Z,3.83
2023-02-19T21:43:53.702Z,6.30
2023-02-19T21:46:20.737Z,3.95
2023-02-19T21:48:47.938Z,3.60
2023-02-19T21:51:14.601Z,4.20
2023-02-19T21:53:41.255Z,4.07
2023-02-19T21:56:09.467Z,5.07
2023-02-19T21:58:36.232Z,4.10
2023-02-19T22:01:03.065Z,8.20
2023-02-19T22:03:30.799Z,6.30
2023-02-19T22:06:01.610Z,8.82
2023-02-19T22:08:28.289Z,6.75
2023-02-19T22:10:54.946Z,7.15
2023-02-19T22:13:22.945Z,5.47
2023-02-19T22:15:49.503Z,7.05
2023-02-19T22:18:16.267Z,6.82
2023-02-19T22:20:42.872Z,7.13
2023-02-19T22:23:09.455Z,6.78
2023-02-19T22:25:36.113Z,7.38
2023-02-19T22:28:03.385Z,6.90
2023-02-19T22:30:31.443Z,7.10
2023-02-19T22:32:58.155Z,8.85
2023-02-19T22:35:24.727Z,7.82
2023-02-19T22:37:51.397Z,7.22
2023-02-19T22:40:18.091Z,12.43
2023-02-19T22:42:44.716Z,11.13
2023-02-19T22:45:11.993Z,9.05
2023-02-19T22:47:40.083Z,10.73
2023-02-19T22:50:07.916Z,10.07
2023-02-19T22:52:34.494Z,12.52
2023-02-19T22:55:01.144Z,11.73
2023-02-19T22:57:27.723Z,12.52
2023-02-19T22:59:54.293Z,16.70
2023-02-19T23:02:20.998Z,11.45
2023-02-19T23:04:48.995Z,14.88
2023-02-19T23:07:15.727Z,13.43
2023-02-19T23:09:42.268Z,17.20
2023-02-19T23:12:10.817Z,13.93
2023-02-19T23:14:37.545Z,15.77
2023-02-19T23:17:04.223Z,12.88
2023-02-19T23:19:30.845Z,13.35
2023-02-19T23:21:59.045Z,11.45
2023-02-19T23:24:25.796Z,11.80
2023-02-19T23:26:53.768Z,15.30
2023-02-19T23:29:23.824Z,13.18
2023-02-19T23:31:52.039Z,14.52
2023-02-19T23:34:18.987Z,13.65
2023-02-19T23:36:47.909Z,15.07
2023-02-19T23:39:18.391Z,21.60
2023-02-19T23:41:48.627Z,16.90
2023-02-19T23:44:16.040Z,17.50
2023-02-19T23:46:42.759Z,13.52
2023-02-19T23:49:09.343Z,18.38
2023-02-19T23:51:36.075Z,13.95
2023-02-19T23:54:02.813Z,18.70
2023-02-19T23:56:30.787Z,14.43
2023-02-19T23:58:57.772Z,20.05
